KVTN

Details ICAO KVTN
Name MILLER FLD
Region United States
Timezone America/Chicago (UTC-6.0)
Plans Departing 0
Arriving 5
Stats Elevation 2,591 ft / 790 m (AMSL)
Location 42.856746° -100.549159°
Runways 2
Magnetic Variation 5.763° E
Sunrise 2017-12-17 14:08:59 UTC / 2017-12-17 08:08:59 Local
Sunset 2017-12-17 23:10:39 UTC / 2017-12-17 17:10:39 Local
Advertisement - Login to hide

Runways

ID Width Length Bearing (true) Bearing (mag) Surface Threshold Offset Overrun Length
03 59 ft / 18 m 3,695 ft / 1,126 m 36.30° 30.54° Asphalt 0 ft / 0 m 0 ft / 0 m
14 98 ft / 30 m 4,713 ft / 1,437 m 145.60° 139.84° Concrete 0 ft / 0 m 292 ft / 89 m
21 59 ft / 18 m 3,695 ft / 1,126 m 216.30° 210.54° Asphalt 299 ft / 91 m 0 ft / 0 m
32 98 ft / 30 m 4,713 ft / 1,437 m 325.60° 319.84° Concrete 0 ft / 0 m 0 ft / 0 m

Map

Weather


0- 5 10 15 20 25 30 35+ Temperature / ° C

Clouds and Precipitation
Forecast for 2017-12-18 06:00 UTC. Updated 13 minutes ago

Ground ~20,000 ft ~40,000 ft Winds

METAR

KVTN 180052Z AUTO 17006KT 10SM CLR 01/M03 A2989 RMK AO2 SLP144 T00061028

TAF

TAF KVTN 172320Z 1800/1824 19007KT P6SM SCT030 FM180800 26008KT P6SM FEW200 FM181700 25012G18KT P6SM SCT200

Frequencies

Recorded 118.07 MHz ASOS
Unicom 122.80 MHz CTAF/UNICOM
Warning: Do not use this data for real-world aviation or navigation. No guarantee of current accuracy is given.